createdAt,value
2018-05-08T00:01:27.500Z,94.40
2018-05-08T00:03:53.947Z,94.40
2018-05-08T00:06:20.497Z,94.30
2018-05-08T00:08:47.831Z,94.70
2018-05-08T00:11:14.328Z,95.20
2018-05-08T00:13:40.733Z,95.10
2018-05-08T00:16:08.023Z,94.90
2018-05-08T00:18:34.356Z,94.90
2018-05-08T00:21:00.859Z,95.00
2018-05-08T00:23:27.323Z,94.40
2018-05-08T00:25:53.761Z,94.20
2018-05-08T00:28:20.165Z,94.30
2018-05-08T00:30:46.602Z,94.20
2018-05-08T00:33:13.129Z,94.40
2018-05-08T00:35:40.295Z,95.10
2018-05-08T00:38:06.655Z,95.10
2018-05-08T00:40:33.022Z,95.30
2018-05-08T00:42:59.386Z,94.90
2018-05-08T00:45:25.900Z,95.50
2018-05-08T00:47:53.020Z,95.60
2018-05-08T00:50:20.480Z,95.50
2018-05-08T00:52:47.047Z,95.70
2018-05-08T00:55:13.550Z,96.40
2018-05-08T00:57:40.008Z,96.80
2018-05-08T01:00:07.311Z,97.10
2018-05-08T01:02:33.808Z,97.00
2018-05-08T01:05:00.268Z,97.10
2018-05-08T01:07:26.944Z,96.60
2018-05-08T01:09:53.585Z,96.90
2018-05-08T01:12:21.086Z,96.90
2018-05-08T01:14:47.618Z,96.90
2018-05-08T01:17:14.793Z,96.90
2018-05-08T01:19:41.229Z,96.90
2018-05-08T01:22:07.736Z,97.30
2018-05-08T01:24:34.977Z,96.80
2018-05-08T01:27:01.630Z,96.80
2018-05-08T01:29:28.730Z,97.20
2018-05-08T01:31:55.137Z,97.20
2018-05-08T01:34:21.613Z,97.10
2018-05-08T01:36:48.025Z,97.30
2018-05-08T01:39:14.615Z,97.30
2018-05-08T01:41:41.820Z,97.30
2018-05-08T01:44:08.421Z,97.30
2018-05-08T01:46:35.610Z,97.60
2018-05-08T01:49:02.186Z,97.50
2018-05-08T01:51:29.421Z,98.40
2018-05-08T01:53:55.913Z,98.40
2018-05-08T01:56:22.352Z,98.40
2018-05-08T01:58:48.761Z,98.30
2018-05-08T02:01:15.261Z,98.10
2018-05-08T02:03:41.713Z,97.90
2018-05-08T02:06:08.143Z,97.90
2018-05-08T02:08:35.343Z,97.80
2018-05-08T02:11:01.743Z,97.80
2018-05-08T02:13:28.956Z,97.60
2018-05-08T02:15:55.375Z,97.60
2018-05-08T02:18:21.791Z,97.80
2018-05-08T02:20:48.255Z,98.10
2018-05-08T02:23:14.689Z,98.40
2018-05-08T02:25:41.215Z,98.40
2018-05-08T02:28:07.641Z,98.30
2018-05-08T02:30:34.022Z,98.00
2018-05-08T02:33:01.306Z,97.90
2018-05-08T02:35:27.752Z,97.90
2018-05-08T02:37:54.384Z,97.70
2018-05-08T02:40:20.740Z,97.60
2018-05-08T02:42:47.372Z,97.70
2018-05-08T02:45:13.838Z,98.00
2018-05-08T02:47:41.078Z,98.50
2018-05-08T02:50:07.512Z,98.50
2018-05-08T02:52:33.927Z,98.40
2018-05-08T02:55:00.326Z,98.20
2018-05-08T02:57:26.834Z,98.10
2018-05-08T02:59:53.364Z,98.20
2018-05-08T03:02:21.248Z,98.90
2018-05-08T03:04:48.528Z,98.60
2018-05-08T03:07:14.920Z,98.60
2018-05-08T03:09:41.419Z,98.30
2018-05-08T03:12:07.880Z,98.10
2018-05-08T03:14:34.606Z,98.30
2018-05-08T03:17:01.029Z,98.30
2018-05-08T03:19:27.663Z,98.40
2018-05-08T03:21:54.072Z,98.70
2018-05-08T03:24:20.592Z,98.90
2018-05-08T03:26:47.042Z,99.20
2018-05-08T03:29:13.423Z,99.60
2018-05-08T03:31:39.790Z,99.40
2018-05-08T03:34:07.633Z,99.10
2018-05-08T03:36:34.859Z,99.30
2018-05-08T03:39:08.161Z,99.10
2018-05-08T03:41:34.531Z,99.30
2018-05-08T03:44:01.622Z,99.30
2018-05-08T03:46:27.949Z,99.30
2018-05-08T03:48:54.295Z,99.50
2018-05-08T03:51:20.847Z,99.50
2018-05-08T03:53:48.083Z,99.20
2018-05-08T03:56:14.436Z,98.90
2018-05-08T03:58:40.804Z,98.80
2018-05-08T04:01:19.348Z,99.00
2018-05-08T04:04:08.484Z,99.00
2018-05-08T04:07:00.483Z,99.40
2018-05-08T04:09:28.366Z,99.50
2018-05-08T04:11:55.396Z,99.30
2018-05-08T04:14:21.715Z,99.30
2018-05-08T04:16:48.018Z,99.00
2018-05-08T04:19:14.323Z,99.30
2018-05-08T04:21:41.371Z,99.70
2018-05-08T04:24:08.534Z,99.70
2018-05-08T04:26:34.880Z,99.70
2018-05-08T04:29:01.254Z,99.40
2018-05-08T04:31:27.582Z,99.50
2018-05-08T04:33:53.878Z,99.50
2018-05-08T04:36:20.210Z,99.50
2018-05-08T04:38:46.502Z,99.60
2018-05-08T04:41:13.956Z,99.80
2018-05-08T04:43:40.302Z,99.80
2018-05-08T04:46:06.580Z,99.70
2018-05-08T04:48:32.986Z,99.40
2018-05-08T04:50:59.294Z,99.30
2018-05-08T04:53:25.584Z,99.30
2018-05-08T04:55:51.885Z,99.30
2018-05-08T04:58:18.208Z,99.10
2018-05-08T05:00:44.506Z,99.50
2018-05-08T05:03:10.816Z,99.90
2018-05-08T05:05:37.136Z,99.80
2018-05-08T05:08:03.442Z,99.70
2018-05-08T05:10:29.750Z,99.90
2018-05-08T05:12:56.040Z,99.90
2018-05-08T05:15:23.132Z,99.80
2018-05-08T05:17:49.468Z,99.70
2018-05-08T05:20:15.872Z,99.80
2018-05-08T05:22:42.192Z,99.90
2018-05-08T05:25:08.556Z,99.90
2018-05-08T05:27:34.866Z,99.80
2018-05-08T05:30:01.951Z,99.80
2018-05-08T05:32:28.250Z,99.80
2018-05-08T05:34:54.593Z,99.40
2018-05-08T05:37:20.890Z,99.20
2018-05-08T05:39:47.230Z,99.40
2018-05-08T05:42:14.554Z,99.40
2018-05-08T05:44:40.853Z,99.40
2018-05-08T05:47:07.171Z,99.20
2018-05-08T05:49:33.467Z,98.70
2018-05-08T05:51:59.801Z,98.30
2018-05-08T05:54:26.097Z,97.70
2018-05-08T05:56:52.395Z,96.70
2018-05-08T05:59:18.750Z,96.80
2018-05-08T06:01:45.071Z,96.50
2018-05-08T06:04:11.377Z,96.10
2018-05-08T06:06:37.730Z,95.70
2018-05-08T06:09:05.066Z,95.90
2018-05-08T06:11:32.128Z,95.20
2018-05-08T06:13:58.420Z,95.10
2018-05-08T06:16:24.769Z,94.60
2018-05-08T06:18:51.134Z,93.60
2018-05-08T06:21:18.232Z,84.30
2018-05-08T06:23:44.618Z,84.30
2018-05-08T06:26:10.912Z,75.60
2018-05-08T06:28:38.109Z,61.70
2018-05-08T06:31:04.455Z,61.70
2018-05-08T06:33:30.792Z,58.50
2018-05-08T06:35:58.582Z,54.00
2018-05-08T06:38:24.879Z,53.90
2018-05-08T06:40:51.231Z,52.90
2018-05-08T06:43:17.637Z,52.10
2018-05-08T06:45:43.925Z,50.60
2018-05-08T06:48:11.007Z,50.00
2018-05-08T06:50:37.288Z,49.90
2018-05-08T06:53:04.376Z,49.10
2018-05-08T06:55:30.721Z,49.10
2018-05-08T06:57:57.091Z,47.50
2018-05-08T07:00:23.441Z,46.50
2018-05-08T07:02:50.487Z,46.10
2018-05-08T07:05:17.565Z,46.20
2018-05-08T07:07:43.890Z,46.10
2018-05-08T07:10:10.189Z,45.50
2018-05-08T07:12:37.261Z,45.40
2018-05-08T07:15:03.569Z,45.30
2018-05-08T07:17:30.617Z,43.80
2018-05-08T07:19:56.971Z,43.80
2018-05-08T07:22:23.344Z,41.60
2018-05-08T07:24:50.385Z,40.70
2018-05-08T07:27:16.775Z,40.80
2018-05-08T07:29:43.167Z,39.40
2018-05-08T07:32:09.493Z,39.70
2018-05-08T07:34:35.815Z,39.50
2018-05-08T07:37:02.122Z,38.40
2018-05-08T07:39:28.424Z,38.50
2018-05-08T07:41:55.488Z,37.10
2018-05-08T07:44:21.836Z,37.10
2018-05-08T07:46:48.181Z,36.70
2018-05-08T07:49:14.483Z,36.20
2018-05-08T07:51:40.872Z,37.00
2018-05-08T07:54:07.230Z,37.60
2018-05-08T07:56:34.253Z,36.00
2018-05-08T07:59:00.606Z,36.00
2018-05-08T08:01:27.734Z,32.90
2018-05-08T08:03:54.148Z,32.80
2018-05-08T08:06:20.495Z,33.90
2018-05-08T08:08:46.883Z,33.30
2018-05-08T08:11:13.226Z,34.20
2018-05-08T08:13:39.551Z,35.50
2018-05-08T08:16:05.882Z,35.80
2018-05-08T08:18:32.241Z,34.50
2018-05-08T08:20:58.508Z,35.00
2018-05-08T08:23:25.564Z,34.20
2018-05-08T08:25:51.928Z,34.20
2018-05-08T08:28:18.312Z,34.60
2018-05-08T08:30:45.410Z,34.20
2018-05-08T08:33:11.778Z,34.10
2018-05-08T08:35:38.201Z,34.60
2018-05-08T08:38:04.585Z,34.80
2018-05-08T08:40:30.970Z,33.10
2018-05-08T08:42:57.353Z,31.90
2018-05-08T08:45:26.642Z,31.50
2018-05-08T08:47:53.178Z,31.60
2018-05-08T08:50:19.681Z,32.50
2018-05-08T08:52:48.082Z,32.40
2018-05-08T08:55:14.376Z,33.00
2018-05-08T08:57:40.668Z,32.80
2018-05-08T09:00:06.987Z,32.10
2018-05-08T09:02:33.265Z,33.60
2018-05-08T09:04:59.560Z,31.80
2018-05-08T09:07:25.864Z,31.20
2018-05-08T09:09:52.177Z,30.60
2018-05-08T09:12:19.198Z,32.30
2018-05-08T09:14:45.516Z,32.20
2018-05-08T09:17:11.818Z,30.90
2018-05-08T09:19:38.129Z,29.90
2018-05-08T09:22:05.197Z,29.50
2018-05-08T09:24:31.476Z,29.50
2018-05-08T09:26:57.816Z,29.80
2018-05-08T09:29:24.848Z,29.60
2018-05-08T09:31:51.160Z,29.50
2018-05-08T09:34:17.484Z,30.50
2018-05-08T09:36:43.802Z,30.90
2018-05-08T09:39:10.094Z,31.20
2018-05-08T09:41:37.136Z,30.40
2018-05-08T09:44:03.516Z,30.40
2018-05-08T09:46:29.812Z,30.90
2018-05-08T09:48:56.118Z,30.00
2018-05-08T09:51:22.408Z,28.00
2018-05-08T09:53:48.726Z,28.90
2018-05-08T09:56:15.036Z,28.60
2018-05-08T09:58:42.083Z,27.40
2018-05-08T10:01:09.234Z,27.20
2018-05-08T10:03:35.506Z,27.20
2018-05-08T10:06:02.570Z,25.60
2018-05-08T10:08:28.875Z,25.60
2018-05-08T10:10:55.180Z,26.30
2018-05-08T10:13:22.220Z,27.30
2018-05-08T10:15:49.264Z,27.70
2018-05-08T10:18:15.554Z,27.60
2018-05-08T10:20:41.897Z,28.00
2018-05-08T10:23:08.204Z,27.20
2018-05-08T10:25:34.524Z,26.80
2018-05-08T10:28:00.817Z,25.60
2018-05-08T10:30:27.870Z,26.30
2018-05-08T10:32:54.182Z,26.20
2018-05-08T10:35:20.470Z,26.60
2018-05-08T10:37:46.801Z,26.00
2018-05-08T10:40:13.158Z,25.40
2018-05-08T10:42:39.460Z,26.20
2018-05-08T10:45:05.804Z,26.60
2018-05-08T10:47:32.114Z,26.20
2018-05-08T10:49:58.422Z,27.50
2018-05-08T10:52:25.494Z,26.60
2018-05-08T10:54:51.810Z,26.50
2018-05-08T10:57:18.098Z,26.20
2018-05-08T10:59:44.397Z,27.40
2018-05-08T11:02:10.695Z,26.90
2018-05-08T11:04:37.028Z,25.40
2018-05-08T11:07:04.072Z,27.20
2018-05-08T11:09:30.390Z,27.20
2018-05-08T11:11:57.444Z,26.30
2018-05-08T11:14:23.771Z,26.30
2018-05-08T11:16:50.848Z,30.50
2018-05-08T11:19:17.154Z,30.10
2018-05-08T11:21:44.191Z,31.10
2018-05-08T11:24:10.494Z,31.10
2018-05-08T11:26:36.984Z,30.70
2018-05-08T11:29:04.320Z,30.00
2018-05-08T11:31:30.672Z,29.70
2018-05-08T11:33:57.132Z,30.10
2018-05-08T11:36:23.639Z,29.90
2018-05-08T11:38:49.939Z,29.30
2018-05-08T11:41:17.060Z,30.50
2018-05-08T11:43:44.160Z,31.00
2018-05-08T11:46:10.630Z,30.90
2018-05-08T11:48:37.026Z,31.20
2018-05-08T11:51:03.415Z,31.40
2018-05-08T11:53:29.842Z,29.10
2018-05-08T11:55:56.342Z,27.80
2018-05-08T11:58:22.811Z,27.20
2018-05-08T12:00:49.386Z,27.30
2018-05-08T12:03:15.970Z,27.70
2018-05-08T12:05:42.482Z,28.10
2018-05-08T12:08:08.958Z,27.90
2018-05-08T12:10:35.335Z,27.60
2018-05-08T12:13:02.564Z,28.30
2018-05-08T12:15:29.077Z,28.30
2018-05-08T12:17:55.500Z,29.10
2018-05-08T12:20:21.852Z,28.30
2018-05-08T12:22:48.320Z,29.10
2018-05-08T12:25:15.527Z,29.70
2018-05-08T12:27:42.501Z,29.70
2018-05-08T12:30:08.922Z,30.40
2018-05-08T12:32:35.351Z,29.80
2018-05-08T12:35:01.749Z,30.40
2018-05-08T12:37:28.178Z,29.40
2018-05-08T12:39:54.592Z,29.60
2018-05-08T12:42:20.998Z,29.40
2018-05-08T12:44:47.390Z,30.00
2018-05-08T12:47:13.839Z,30.10
2018-05-08T12:49:40.161Z,30.10
2018-05-08T12:52:06.535Z,30.00
2018-05-08T12:54:32.946Z,29.90
2018-05-08T12:56:59.245Z,31.80
2018-05-08T12:59:25.578Z,31.20
2018-05-08T13:01:51.903Z,30.60
2018-05-08T13:04:18.208Z,30.70
2018-05-08T13:06:45.258Z,30.70
2018-05-08T13:09:14.638Z,30.70
2018-05-08T13:11:41.889Z,30.20
2018-05-08T13:14:08.397Z,30.10
2018-05-08T13:16:34.706Z,30.00
2018-05-08T13:19:12.657Z,30.00
2018-05-08T13:21:39.774Z,30.90
2018-05-08T13:26:48.945Z,30.10
2018-05-08T13:29:20.876Z,30.60
2018-05-08T13:31:48.481Z,30.50
2018-05-08T13:34:15.705Z,29.90
2018-05-08T13:36:42.033Z,29.90
2018-05-08T13:39:14.744Z,30.00
2018-05-08T13:41:43.068Z,29.50
2018-05-08T13:44:09.438Z,29.40
2018-05-08T13:46:36.497Z,29.00
2018-05-08T13:49:05.547Z,29.00
2018-05-08T13:51:31.978Z,29.00
2018-05-08T13:53:58.298Z,29.50
2018-05-08T13:56:24.668Z,30.20
2018-05-08T13:58:51.953Z,29.20
2018-05-08T14:01:19.028Z,29.50
2018-05-08T14:09:39.922Z,29.30
2018-05-08T14:12:07.018Z,29.00
2018-05-08T14:14:33.318Z,29.00
2018-05-08T14:16:59.968Z,29.50
2018-05-08T14:19:33.788Z,29.20
2018-05-08T14:22:00.117Z,29.10
2018-05-08T14:24:26.427Z,28.70
2018-05-08T14:26:52.761Z,28.40
2018-05-08T14:29:20.863Z,28.20
2018-05-08T14:31:47.182Z,28.20
2018-05-08T14:34:13.483Z,28.20
2018-05-08T14:36:40.584Z,29.20
2018-05-08T14:39:07.004Z,29.20
2018-05-08T14:41:33.333Z,30.20
2018-05-08T14:43:59.624Z,30.80
2018-05-08T14:46:26.702Z,30.10
2018-05-08T14:48:55.239Z,30.20
2018-05-08T14:51:21.556Z,29.30
2018-05-08T14:53:47.882Z,29.30
2018-05-08T14:56:14.690Z,29.60
2018-05-08T14:58:41.167Z,29.00
2018-05-08T15:01:07.467Z,28.80
2018-05-08T15:03:33.939Z,29.70
2018-05-08T15:06:00.348Z,29.30
2018-05-08T15:08:27.771Z,29.00
2018-05-08T15:10:54.816Z,29.60
2018-05-08T15:13:23.227Z,28.80
2018-05-08T15:15:49.624Z,28.80
2018-05-08T15:18:15.964Z,29.30
2018-05-08T15:20:43.028Z,30.00
2018-05-08T15:23:09.324Z,30.00
2018-05-08T15:25:36.418Z,29.90
2018-05-08T15:28:02.743Z,29.80
2018-05-08T15:30:29.106Z,29.70
2018-05-08T15:32:56.156Z,28.40
2018-05-08T15:35:22.484Z,28.40
2018-05-08T15:37:48.811Z,28.70
2018-05-08T15:40:15.248Z,28.60
2018-05-08T15:42:41.548Z,28.40
2018-05-08T15:45:07.910Z,29.00
2018-05-08T15:47:34.224Z,28.80
2018-05-08T15:50:02.657Z,28.60
2018-05-08T15:52:28.970Z,29.50
2018-05-08T15:54:55.337Z,28.80
2018-05-08T15:57:21.652Z,29.00
2018-05-08T15:59:48.137Z,28.80
2018-05-08T16:02:17.025Z,31.20
2018-05-08T16:17:42.334Z,31.20
2018-05-08T16:20:08.756Z,29.90
2018-05-08T16:22:35.258Z,30.10
2018-05-08T16:25:08.186Z,30.20
2018-05-08T16:27:43.728Z,30.40
2018-05-08T16:30:10.134Z,31.00
2018-05-08T16:32:36.460Z,31.50
2018-05-08T16:35:02.809Z,32.30
2018-05-08T16:37:30.328Z,30.80
2018-05-08T16:39:57.442Z,30.30
2018-05-08T16:42:23.742Z,30.30
2018-05-08T16:44:50.094Z,30.90
2018-05-08T16:47:16.397Z,31.10
2018-05-08T16:49:42.748Z,31.80
2018-05-08T16:52:09.138Z,30.60
2018-05-08T16:54:36.228Z,30.70
2018-05-08T16:57:02.560Z,30.60
2018-05-08T16:59:32.989Z,30.30
2018-05-08T17:01:59.301Z,31.70
2018-05-08T17:04:25.641Z,32.10
2018-05-08T17:06:51.999Z,31.20
2018-05-08T17:09:19.430Z,31.70
2018-05-08T17:11:45.788Z,31.50
2018-05-08T17:14:12.092Z,33.30
2018-05-08T17:16:38.487Z,35.20
2018-05-08T17:19:05.768Z,35.10
2018-05-08T17:21:32.277Z,35.10
2018-05-08T17:23:58.649Z,36.00
2018-05-08T17:26:24.976Z,35.40
2018-05-08T17:28:51.619Z,35.60
2018-05-08T17:31:17.954Z,35.70
2018-05-08T17:33:44.367Z,35.60
2018-05-08T17:36:10.627Z,38.10
2018-05-08T17:38:37.989Z,37.90
2018-05-08T17:41:04.383Z,36.50
2018-05-08T17:43:30.740Z,36.40
2018-05-08T17:45:57.065Z,36.70
2018-05-08T17:48:23.503Z,37.50
2018-05-08T17:50:49.867Z,37.60
2018-05-08T17:53:16.181Z,38.90
2018-05-08T17:55:42.537Z,39.90
2018-05-08T17:58:08.865Z,38.70
2018-05-08T18:00:35.281Z,39.50
2018-05-08T18:03:01.628Z,40.20
2018-05-08T18:05:27.960Z,40.10
2018-05-08T18:07:54.285Z,40.80
2018-05-08T18:10:20.806Z,42.90
2018-05-08T18:12:47.118Z,42.50
2018-05-08T18:15:13.477Z,41.50
2018-05-08T18:17:39.928Z,43.20
2018-05-08T18:20:06.524Z,43.00
2018-05-08T18:22:32.927Z,45.30
2018-05-08T18:24:59.479Z,46.10
2018-05-08T18:27:25.913Z,47.40
2018-05-08T18:29:54.314Z,47.60
2018-05-08T18:32:20.827Z,48.80
2018-05-08T18:34:47.173Z,51.30
2018-05-08T18:37:13.600Z,52.20
2018-05-08T18:39:41.025Z,53.30
2018-05-08T18:42:08.189Z,54.40
2018-05-08T18:44:35.468Z,55.70
2018-05-08T18:47:02.429Z,55.70
2018-05-08T18:49:32.759Z,56.60
2018-05-08T18:51:59.012Z,56.60
2018-05-08T18:54:25.685Z,56.50
2018-05-08T18:56:52.164Z,57.10
2018-05-08T18:59:23.447Z,57.50
2018-05-08T19:01:50.065Z,57.30
2018-05-08T19:04:16.538Z,56.20
2018-05-08T19:06:43.785Z,57.10
2018-05-08T19:09:14.528Z,57.10
2018-05-08T19:11:41.941Z,56.70
2018-05-08T19:14:08.361Z,57.80
2018-05-08T19:16:34.833Z,58.70
2018-05-08T19:19:12.118Z,58.10
2018-05-08T19:21:39.362Z,58.60
2018-05-08T19:24:11.945Z,58.60
2018-05-08T19:26:38.974Z,57.50
2018-05-08T19:29:14.894Z,58.60
2018-05-08T19:31:41.288Z,61.40
2018-05-08T19:34:09.224Z,64.00
2018-05-08T19:36:41.543Z,64.00
2018-05-08T19:39:15.453Z,66.00
2018-05-08T19:41:41.770Z,66.10
2018-05-08T19:44:08.155Z,65.60
2018-05-08T19:46:34.494Z,65.40
2018-05-08T19:49:00.876Z,65.30
2018-05-08T19:51:28.066Z,65.70
2018-05-08T19:53:54.562Z,65.70
2018-05-08T19:56:21.727Z,66.20
2018-05-08T19:58:48.136Z,66.10
2018-05-08T20:01:15.277Z,66.90
2018-05-08T20:03:41.677Z,66.90
2018-05-08T20:06:08.144Z,67.60
2018-05-08T20:08:35.270Z,70.00
2018-05-08T20:11:02.483Z,71.20
2018-05-08T20:13:28.905Z,71.20
2018-05-08T20:15:55.293Z,70.20
2018-05-08T20:18:21.680Z,71.10
2018-05-08T20:20:48.107Z,70.90
2018-05-08T20:23:14.423Z,70.10
2018-05-08T20:25:40.752Z,71.00
2018-05-08T20:28:07.843Z,72.10
2018-05-08T20:30:34.196Z,72.10
2018-05-08T20:33:00.554Z,72.70
2018-05-08T20:35:26.891Z,72.90
2018-05-08T20:37:53.978Z,75.00
2018-05-08T20:40:20.324Z,74.30
2018-05-08T20:42:46.829Z,74.60
2018-05-08T20:45:13.196Z,74.60
2018-05-08T20:47:39.527Z,75.20
2018-05-08T20:50:05.935Z,76.00
2018-05-08T20:52:32.498Z,76.80
2018-05-08T20:54:58.761Z,76.50
2018-05-08T20:57:25.187Z,76.20
2018-05-08T20:59:51.531Z,76.60
2018-05-08T21:02:17.967Z,77.00
2018-05-08T21:04:45.101Z,77.60
2018-05-08T21:07:12.267Z,77.50
2018-05-08T21:09:38.729Z,77.50
2018-05-08T21:12:05.146Z,77.20
2018-05-08T21:14:31.543Z,75.00
2018-05-08T21:16:57.914Z,73.90
2018-05-08T21:19:24.407Z,72.30
2018-05-08T21:21:50.763Z,73.00
2018-05-08T21:24:17.926Z,74.70
2018-05-08T21:26:45.053Z,74.20
2018-05-08T21:29:17.373Z,74.10
2018-05-08T21:31:43.750Z,74.30
2018-05-08T21:34:10.200Z,76.10
2018-05-08T21:36:37.261Z,76.20
2018-05-08T21:39:03.699Z,76.10
2018-05-08T21:41:30.167Z,76.00
2018-05-08T21:43:56.587Z,76.40
2018-05-08T21:46:22.988Z,77.70
2018-05-08T21:48:49.352Z,79.80
2018-05-08T21:51:15.812Z,78.60
2018-05-08T21:53:42.145Z,78.30
2018-05-08T21:56:08.560Z,78.90
2018-05-08T21:58:35.040Z,78.80
2018-05-08T22:01:01.605Z,79.10
2018-05-08T22:03:28.036Z,79.40
2018-05-08T22:05:54.421Z,80.40
2018-05-08T22:08:20.806Z,82.20
2018-05-08T22:10:48.000Z,84.20
2018-05-08T22:13:14.383Z,84.20
2018-05-08T22:15:40.798Z,85.40
2018-05-08T22:18:07.201Z,85.80
2018-05-08T22:20:33.551Z,85.70
2018-05-08T22:22:59.935Z,85.50
2018-05-08T22:25:26.409Z,85.60
2018-05-08T22:27:52.864Z,86.00
2018-05-08T22:30:19.296Z,85.90
2018-05-08T22:32:46.447Z,86.30
2018-05-08T22:35:12.775Z,86.30
2018-05-08T22:37:39.236Z,86.90
2018-05-08T22:40:06.404Z,87.40
2018-05-08T22:42:32.736Z,87.40
2018-05-08T22:44:59.158Z,87.20
2018-05-08T22:47:25.561Z,87.00
2018-05-08T22:49:52.800Z,86.90
2018-05-08T22:52:19.981Z,87.70
2018-05-08T22:54:46.335Z,87.70
2018-05-08T22:57:12.677Z,87.60
2018-05-08T22:59:39.150Z,87.20
2018-05-08T23:02:05.736Z,86.80
2018-05-08T23:04:32.108Z,86.60
2018-05-08T23:06:58.513Z,87.40
2018-05-08T23:09:24.889Z,87.00
2018-05-08T23:11:51.309Z,86.50
2018-05-08T23:14:18.465Z,87.50
2018-05-08T23:16:44.826Z,87.50
2018-05-08T23:19:11.925Z,84.60
2018-05-08T23:21:38.367Z,84.60
2018-05-08T23:24:05.472Z,83.60
2018-05-08T23:26:31.794Z,83.60
2018-05-08T23:28:58.120Z,83.40
2018-05-08T23:31:24.516Z,83.20
2018-05-08T23:33:50.949Z,82.40
2018-05-08T23:36:17.364Z,82.10
2018-05-08T23:38:44.541Z,82.90
2018-05-08T23:41:10.932Z,83.00
2018-05-08T23:43:37.286Z,82.30
2018-05-08T23:46:03.632Z,82.80
2018-05-08T23:48:30.081Z,82.90
2018-05-08T23:50:56.448Z,84.00
2018-05-08T23:53:22.922Z,84.10
2018-05-08T23:55:49.248Z,84.70
2018-05-08T23:58:15.599Z,85.00
